createdAt,value
2017-03-09T00:00:41.188Z,90.42
2017-03-09T00:01:41.163Z,90.52
2017-03-09T00:02:41.154Z,90.23
2017-03-09T00:03:41.146Z,90.52
2017-03-09T00:04:41.159Z,90.23
2017-03-09T00:05:41.123Z,90.33
2017-03-09T00:06:40.726Z,90.42
2017-03-09T00:07:41.103Z,90.33
2017-03-09T00:08:41.093Z,89.28
2017-03-09T00:09:41.079Z,89.28
2017-03-09T00:10:41.078Z,89.28
2017-03-09T00:11:41.065Z,89.33
2017-03-09T00:12:41.063Z,89.95
2017-03-09T00:13:41.041Z,90.14
2017-03-09T00:14:41.033Z,90.8
2017-03-09T00:15:41.020Z,90.99
2017-03-09T00:16:41.008Z,90.61
2017-03-09T00:17:40.996Z,91.56
2017-03-09T00:18:40.992Z,92.04
2017-03-09T00:19:40.994Z,92.13
2017-03-09T00:20:40.977Z,91.75
2017-03-09T00:21:40.956Z,91.94
2017-03-09T00:22:40.954Z,92.32
2017-03-09T00:23:40.951Z,92.71
2017-03-09T00:24:40.929Z,92.32
2017-03-09T00:25:40.914Z,92.32
2017-03-09T00:26:40.905Z,92.51
2017-03-09T00:27:40.899Z,92.04
2017-03-09T00:28:40.896Z,92.04
2017-03-09T00:29:40.880Z,91.56
2017-03-09T00:30:40.869Z,92.23
2017-03-09T00:31:40.851Z,91.85
2017-03-09T00:32:40.849Z,92.61
2017-03-09T00:33:40.834Z,92.71
2017-03-09T00:34:40.440Z,92.61
2017-03-09T00:35:40.825Z,92.32
2017-03-09T00:36:40.799Z,92.51
2017-03-09T00:37:40.405Z,92.37
2017-03-09T00:38:40.779Z,92.85
2017-03-09T00:39:40.770Z,92.08
2017-03-09T00:40:40.759Z,92.37
2017-03-09T00:41:40.751Z,92.66
2017-03-09T00:42:40.741Z,92.08
2017-03-09T00:43:40.729Z,91.8
2017-03-09T00:44:40.718Z,91.52
2017-03-09T00:45:40.709Z,91.71
2017-03-09T00:46:40.711Z,91.71
2017-03-09T00:47:40.692Z,91.23
2017-03-09T00:48:40.677Z,91.61
2017-03-09T00:49:40.668Z,91.52
2017-03-09T00:50:40.671Z,91.52
2017-03-09T00:51:40.671Z,91.52
2017-03-09T00:52:40.648Z,91.42
2017-03-09T00:53:40.640Z,91.33
2017-03-09T00:54:40.616Z,91.52
2017-03-09T00:55:40.616Z,90.85
2017-03-09T00:56:40.597Z,91.42
2017-03-09T00:57:40.598Z,90.66
2017-03-09T00:58:40.576Z,90.85
2017-03-09T00:59:40.179Z,90.94
2017-03-09T01:00:40.564Z,90.09
2017-03-09T01:01:40.544Z,90.75
2017-03-09T01:02:40.536Z,90.19
2017-03-09T01:03:40.526Z,90
2017-03-09T01:04:40.514Z,90
2017-03-09T01:05:40.504Z,90.28
2017-03-09T01:06:40.512Z,89.33
2017-03-09T01:07:40.501Z,89.42
2017-03-09T01:08:40.475Z,89.33
2017-03-09T01:09:40.467Z,89.42
2017-03-09T01:10:40.458Z,88.95
2017-03-09T01:11:40.441Z,89.04
2017-03-09T01:12:40.432Z,89.04
2017-03-09T01:13:40.430Z,88.85
2017-03-09T01:14:40.428Z,88.95
2017-03-09T01:15:40.404Z,89.04
2017-03-09T01:16:40.397Z,89.04
2017-03-09T01:17:40.391Z,88.67
2017-03-09T01:18:40.374Z,88.71
2017-03-09T01:19:40.394Z,88.9
2017-03-09T01:20:39.966Z,88.33
2017-03-09T01:21:40.343Z,88.23
2017-03-09T01:22:40.341Z,88.42
2017-03-09T01:23:40.327Z,88.71
2017-03-09T01:24:40.315Z,88.61
2017-03-09T01:25:40.307Z,88.71
2017-03-09T01:26:40.296Z,88.04
2017-03-09T01:27:40.283Z,87.95
2017-03-09T01:28:40.274Z,87.95
2017-03-09T01:29:40.264Z,88.13
2017-03-09T01:30:40.253Z,87.38
2017-03-09T01:31:40.244Z,87.38
2017-03-09T01:32:40.234Z,87.57
2017-03-09T01:33:39.853Z,87.66
2017-03-09T01:34:40.225Z,87.76
2017-03-09T01:35:40.203Z,87.38
2017-03-09T01:36:40.203Z,87.57
2017-03-09T01:37:39.799Z,87.47
2017-03-09T01:38:40.177Z,87.47
2017-03-09T01:39:40.169Z,87.66
2017-03-09T01:40:40.157Z,87.85
2017-03-09T01:41:40.156Z,87.57
2017-03-09T01:42:40.153Z,87.28
2017-03-09T01:43:40.124Z,87.09
2017-03-09T01:44:40.113Z,87.28
2017-03-09T01:45:40.120Z,86.99
2017-03-09T01:46:40.096Z,86.99
2017-03-09T01:47:40.099Z,86.9
2017-03-09T01:48:40.075Z,86.61
2017-03-09T01:49:40.065Z,86.99
2017-03-09T01:50:40.070Z,86.43
2017-03-09T01:51:40.049Z,86.43
2017-03-09T01:52:40.040Z,86.61
2017-03-09T01:53:40.028Z,86.52
2017-03-09T01:54:40.018Z,86.24
2017-03-09T01:55:40.006Z,86.24
2017-03-09T01:56:39.998Z,86.33
2017-03-09T01:57:39.987Z,86.52
2017-03-09T01:58:40.000Z,86.61
2017-03-09T01:59:39.967Z,86.61
2017-03-09T02:00:39.959Z,86.71
2017-03-09T02:01:39.948Z,85.95
2017-03-09T02:02:39.940Z,86.14
2017-03-09T02:03:39.929Z,86.14
2017-03-09T02:04:39.930Z,86.14
2017-03-09T02:05:39.910Z,86.61
2017-03-09T02:06:39.910Z,86.8
2017-03-09T02:07:39.889Z,86.71
2017-03-09T02:08:39.881Z,86.43
2017-03-09T02:09:39.882Z,86.33
2017-03-09T02:10:39.860Z,86.24
2017-03-09T02:11:39.852Z,86.52
2017-03-09T02:12:39.841Z,86.24
2017-03-09T02:13:39.835Z,86.43
2017-03-09T02:14:39.823Z,86.61
2017-03-09T02:15:39.834Z,86.52
2017-03-09T02:16:39.804Z,86.43
2017-03-09T02:17:39.800Z,86.24
2017-03-09T02:18:39.789Z,86.33
2017-03-09T02:19:39.775Z,86.14
2017-03-09T02:20:39.777Z,86.43
2017-03-09T02:21:39.755Z,86.61
2017-03-09T02:22:39.745Z,86.61
2017-03-09T02:23:39.740Z,86.52
2017-03-09T02:24:39.737Z,86.61
2017-03-09T02:25:39.727Z,86.99
2017-03-09T02:26:39.705Z,86.99
2017-03-09T02:27:39.696Z,86.71
2017-03-09T02:28:39.685Z,87.09
2017-03-09T02:29:39.676Z,87.09
2017-03-09T02:30:39.667Z,87.09
2017-03-09T02:31:39.655Z,86.9
2017-03-09T02:32:39.647Z,86.9
2017-03-09T02:33:39.640Z,86.99
2017-03-09T02:34:39.629Z,86.9
2017-03-09T02:35:39.619Z,86.8
2017-03-09T02:36:39.611Z,86.99
2017-03-09T02:37:39.604Z,86.8
2017-03-09T02:38:39.586Z,86.99
2017-03-09T02:39:39.574Z,86.8
2017-03-09T02:40:39.576Z,86.8
2017-03-09T02:41:39.558Z,86.9
2017-03-09T02:42:39.559Z,86.8
2017-03-09T02:43:39.543Z,86.99
2017-03-09T02:44:39.531Z,86.71
2017-03-09T02:45:39.532Z,86.52
2017-03-09T02:46:39.507Z,86.43
2017-03-09T02:47:39.500Z,86.71
2017-03-09T02:48:39.490Z,86.71
2017-03-09T02:49:39.479Z,86.9
2017-03-09T02:50:39.467Z,86.99
2017-03-09T02:51:39.456Z,86.99
2017-03-09T02:52:39.450Z,87.38
2017-03-09T02:53:39.445Z,87.28
2017-03-09T02:54:39.428Z,86.9
2017-03-09T02:55:39.419Z,87.19
2017-03-09T02:56:39.409Z,86.9
2017-03-09T02:57:39.401Z,87.09
2017-03-09T02:58:39.390Z,86.9
2017-03-09T02:59:39.379Z,86.9
2017-03-09T03:00:39.377Z,86.9
2017-03-09T03:01:39.362Z,86.99
2017-03-09T03:02:39.354Z,87.09
2017-03-09T03:03:39.339Z,87.28
2017-03-09T03:04:39.332Z,87.09
2017-03-09T03:05:39.340Z,87.09
2017-03-09T03:06:39.309Z,86.9
2017-03-09T03:07:39.312Z,87.09
2017-03-09T03:08:39.289Z,87.38
2017-03-09T03:09:39.284Z,86.8
2017-03-09T03:10:39.273Z,86.99
2017-03-09T03:11:39.270Z,87.52
2017-03-09T03:12:39.254Z,86.99
2017-03-09T03:13:39.248Z,87.71
2017-03-09T03:14:39.232Z,87.28
2017-03-09T03:15:39.221Z,87.05
2017-03-09T03:16:39.208Z,87.52
2017-03-09T03:17:39.198Z,87.62
2017-03-09T03:18:39.190Z,87.71
2017-03-09T03:19:39.178Z,87.47
2017-03-09T03:20:39.170Z,87.52
2017-03-09T03:21:39.163Z,87.52
2017-03-09T03:22:39.166Z,87.71
2017-03-09T03:23:39.140Z,87.34
2017-03-09T03:24:39.144Z,87.76
2017-03-09T03:25:39.120Z,87.52
2017-03-09T03:26:39.111Z,87.71
2017-03-09T03:27:39.099Z,87.62
2017-03-09T03:28:39.090Z,87.52
2017-03-09T03:29:39.104Z,87.66
2017-03-09T03:30:39.069Z,87.52
2017-03-09T03:31:39.060Z,87.52
2017-03-09T03:32:39.051Z,87.34
2017-03-09T03:33:39.047Z,87.43
2017-03-09T03:34:39.046Z,87.43
2017-03-09T03:35:39.024Z,87.81
2017-03-09T03:36:39.011Z,88.19
2017-03-09T03:37:39.021Z,88.23
2017-03-09T03:38:38.995Z,87.57
2017-03-09T03:39:38.983Z,87.62
2017-03-09T03:40:38.971Z,87.81
2017-03-09T03:41:38.959Z,87.43
2017-03-09T03:42:38.953Z,87.66
2017-03-09T03:43:38.940Z,87.47
2017-03-09T03:44:38.933Z,87.57
2017-03-09T03:45:38.938Z,87.85
2017-03-09T03:46:38.910Z,87.66
2017-03-09T03:47:38.904Z,87.47
2017-03-09T03:48:38.904Z,87.76
2017-03-09T03:49:38.880Z,87.66
2017-03-09T03:50:38.873Z,87.47
2017-03-09T03:51:38.862Z,87.28
2017-03-09T03:52:38.849Z,87.66
2017-03-09T03:53:38.846Z,87.47
2017-03-09T03:54:38.834Z,87.85
2017-03-09T03:55:38.822Z,87.85
2017-03-09T03:56:38.811Z,87.66
2017-03-09T03:57:38.804Z,87.66
2017-03-09T03:58:38.792Z,87.19
2017-03-09T03:59:38.781Z,87.57
2017-03-09T04:00:38.789Z,86.99
2017-03-09T04:01:38.766Z,87.28
2017-03-09T04:02:38.767Z,87.38
2017-03-09T04:03:38.741Z,87.09
2017-03-09T04:04:38.731Z,86.99
2017-03-09T04:05:38.720Z,87.47
2017-03-09T04:06:38.721Z,86.9
2017-03-09T04:07:38.701Z,86.8
2017-03-09T04:08:38.701Z,86.99
2017-03-09T04:09:38.704Z,87.28
2017-03-09T04:10:38.683Z,86.9
2017-03-09T04:11:38.664Z,86.43
2017-03-09T04:12:38.653Z,86.8
2017-03-09T04:13:38.645Z,86.61
2017-03-09T04:14:38.632Z,86.52
2017-03-09T04:15:38.624Z,86.61
2017-03-09T04:16:38.614Z,86.24
2017-03-09T04:17:38.620Z,86.52
2017-03-09T04:18:38.598Z,86.43
2017-03-09T04:19:38.583Z,86.33
2017-03-09T04:20:38.587Z,86.33
2017-03-09T04:21:38.563Z,86.24
2017-03-09T04:22:38.561Z,86.43
2017-03-09T04:23:38.560Z,86.43
2017-03-09T04:24:38.535Z,86.43
2017-03-09T04:25:38.525Z,86.71
2017-03-09T04:26:38.513Z,86.43
2017-03-09T04:27:38.507Z,86.33
2017-03-09T04:28:38.496Z,86.8
2017-03-09T04:29:38.493Z,86.52
2017-03-09T04:30:38.494Z,86.33
2017-03-09T04:31:38.467Z,86.33
2017-03-09T04:32:38.455Z,86.71
2017-03-09T04:33:38.446Z,86.52
2017-03-09T04:34:38.436Z,86.52
2017-03-09T04:35:38.427Z,86.43
2017-03-09T04:36:38.419Z,86.43
2017-03-09T04:37:38.406Z,86.33
2017-03-09T04:38:38.398Z,86.71
2017-03-09T04:39:38.387Z,85.95
2017-03-09T04:40:38.389Z,86.05
2017-03-09T04:41:38.368Z,86.14
2017-03-09T04:42:38.359Z,86.71
2017-03-09T04:43:38.351Z,86.61
2017-03-09T04:44:38.338Z,86.33
2017-03-09T04:45:38.332Z,86.71
2017-03-09T04:46:38.319Z,86.43
2017-03-09T04:47:38.309Z,86.05
2017-03-09T04:48:38.299Z,86.52
2017-03-09T04:49:38.294Z,86.33
2017-03-09T04:50:38.290Z,86.43
2017-03-09T04:51:38.282Z,85.86
2017-03-09T04:52:38.258Z,85.57
2017-03-09T04:53:38.252Z,85.57
2017-03-09T04:54:38.253Z,85.66
2017-03-09T04:55:38.244Z,85.76
2017-03-09T04:56:38.220Z,85.76
2017-03-09T04:57:38.214Z,85.76
2017-03-09T04:58:38.210Z,85.76
2017-03-09T04:59:38.195Z,85.66
2017-03-09T05:00:38.181Z,85.86
2017-03-09T05:01:38.185Z,85.86
2017-03-09T05:02:38.162Z,85.66
2017-03-09T05:03:38.153Z,85.95
2017-03-09T05:04:38.154Z,85.86
2017-03-09T05:05:38.134Z,85.47
2017-03-09T05:06:38.124Z,85.95
2017-03-09T05:07:38.114Z,85.76
2017-03-09T05:08:38.104Z,85.47
2017-03-09T05:09:38.094Z,85.47
2017-03-09T05:10:38.081Z,85.57
2017-03-09T05:11:38.074Z,85.57
2017-03-09T05:12:38.064Z,85.47
2017-03-09T05:13:38.060Z,85.47
2017-03-09T05:14:38.050Z,85.38
2017-03-09T05:15:38.036Z,85.38
2017-03-09T05:16:38.026Z,85.86
2017-03-09T05:17:38.015Z,85.76
2017-03-09T05:18:38.016Z,85.19
2017-03-09T05:19:37.996Z,85.19
2017-03-09T05:20:37.990Z,85.38
2017-03-09T05:21:37.977Z,85.38
2017-03-09T05:22:37.977Z,85.66
2017-03-09T05:23:37.958Z,85.19
2017-03-09T05:24:37.968Z,85.19
2017-03-09T05:25:37.938Z,85.47
2017-03-09T05:26:37.930Z,85.1
2017-03-09T05:27:37.918Z,85.1
2017-03-09T05:28:37.909Z,85.19
2017-03-09T05:29:37.904Z,85.19
2017-03-09T05:30:37.890Z,85.28
2017-03-09T05:31:37.883Z,85.28
2017-03-09T05:32:37.870Z,85.28
2017-03-09T05:33:37.860Z,85.19
2017-03-09T05:34:37.852Z,85.47
2017-03-09T05:35:37.847Z,85.66
2017-03-09T05:36:37.832Z,85.76
2017-03-09T05:37:37.835Z,85.38
2017-03-09T05:38:37.810Z,85.38
2017-03-09T05:39:37.805Z,85.76
2017-03-09T05:40:37.792Z,85.86
2017-03-09T05:41:37.782Z,85.28
2017-03-09T05:42:37.770Z,85.28
2017-03-09T05:43:37.763Z,85.86
2017-03-09T05:44:37.763Z,85.76
2017-03-09T05:45:37.743Z,85.66
2017-03-09T05:46:37.732Z,85.86
2017-03-09T05:47:37.722Z,85.86
2017-03-09T05:48:37.328Z,85.86
2017-03-09T05:49:37.705Z,85.66
2017-03-09T05:50:37.707Z,86.05
2017-03-09T05:51:37.683Z,86.33
2017-03-09T05:52:37.675Z,86.14
2017-03-09T05:53:37.676Z,86.8
2017-03-09T05:54:37.654Z,86.33
2017-03-09T05:55:37.651Z,86.43
2017-03-09T05:56:37.642Z,86.71
2017-03-09T05:57:37.625Z,86.8
2017-03-09T05:58:37.616Z,86.9
2017-03-09T05:59:37.606Z,86.61
2017-03-09T06:00:37.595Z,87.19
2017-03-09T06:01:37.587Z,86.99
2017-03-09T06:02:37.577Z,86.8
2017-03-09T06:03:37.567Z,87.38
2017-03-09T06:04:37.559Z,87.19
2017-03-09T06:05:37.556Z,86.9
2017-03-09T06:06:37.540Z,86.8
2017-03-09T06:07:37.529Z,86.8
2017-03-09T06:08:37.517Z,86.9
2017-03-09T06:09:37.509Z,86.43
2017-03-09T06:10:37.524Z,86.8
2017-03-09T06:11:37.488Z,86.52
2017-03-09T06:12:37.480Z,86.99
2017-03-09T06:13:37.469Z,87.09
2017-03-09T06:14:37.470Z,86.8
2017-03-09T06:15:37.457Z,87.09
2017-03-09T06:16:37.438Z,87.28
2017-03-09T06:17:37.435Z,87.38
2017-03-09T06:18:37.420Z,87.57
2017-03-09T06:19:37.409Z,87.38
2017-03-09T06:20:37.020Z,87.28
2017-03-09T06:21:37.390Z,87.85
2017-03-09T06:22:37.387Z,87.28
2017-03-09T06:23:37.371Z,87.57
2017-03-09T06:24:37.361Z,87.09
2017-03-09T06:25:37.353Z,87.28
2017-03-09T06:26:37.347Z,87.19
2017-03-09T06:27:37.333Z,86.9
2017-03-09T06:28:37.324Z,87.47
2017-03-09T06:29:37.313Z,87.38
2017-03-09T06:30:37.303Z,86.9
2017-03-09T06:31:37.320Z,86.9
2017-03-09T06:32:37.285Z,86.33
2017-03-09T06:33:37.289Z,86.71
2017-03-09T06:34:37.276Z,86.43
2017-03-09T06:35:37.258Z,86.71
2017-03-09T06:36:36.869Z,86.43
2017-03-09T06:37:37.235Z,86.8
2017-03-09T06:38:37.228Z,86.71
2017-03-09T06:39:37.218Z,85.95
2017-03-09T06:40:37.207Z,86.14
2017-03-09T06:41:37.195Z,86.24
2017-03-09T06:42:37.188Z,86.33
2017-03-09T06:43:37.180Z,85.99
2017-03-09T06:44:37.190Z,85.86
2017-03-09T06:45:37.159Z,85.8
2017-03-09T06:46:37.149Z,85.33
2017-03-09T06:47:37.152Z,85.52
2017-03-09T06:48:37.130Z,85.71
2017-03-09T06:49:37.124Z,85.52
2017-03-09T06:50:37.118Z,85.14
2017-03-09T06:51:37.101Z,85.14
2017-03-09T06:52:37.091Z,85.04
2017-03-09T06:53:37.088Z,84.95
2017-03-09T06:54:37.073Z,84.85
2017-03-09T06:55:37.063Z,84.76
2017-03-09T06:56:37.053Z,84.66
2017-03-09T06:57:36.657Z,84.66
2017-03-09T06:58:37.033Z,84.66
2017-03-09T06:59:37.025Z,84.47
2017-03-09T07:00:37.016Z,84.85
2017-03-09T07:01:37.017Z,84.47
2017-03-09T07:02:37.014Z,84.85
2017-03-09T07:03:36.989Z,84.76
2017-03-09T07:04:36.591Z,84.47
2017-03-09T07:05:36.969Z,84.19
2017-03-09T07:06:36.958Z,84.47
2017-03-09T07:07:36.949Z,84.38
2017-03-09T07:08:36.939Z,84.47
2017-03-09T07:09:36.934Z,84.66
2017-03-09T07:10:36.921Z,84.38
2017-03-09T07:11:36.914Z,84
2017-03-09T07:12:36.903Z,84.19
2017-03-09T07:13:36.892Z,83.71
2017-03-09T07:14:36.497Z,83.9
2017-03-09T07:15:36.877Z,83.62
2017-03-09T07:16:36.865Z,83.52
2017-03-09T07:17:36.854Z,83.71
2017-03-09T07:18:36.846Z,83.14
2017-03-09T07:19:36.837Z,83.23
2017-03-09T07:20:36.826Z,83.33
2017-03-09T07:21:36.818Z,83.81
2017-03-09T07:22:36.808Z,83.23
2017-03-09T07:23:36.798Z,82.76
2017-03-09T07:24:36.788Z,83.04
2017-03-09T07:25:36.780Z,82.76
2017-03-09T07:26:36.774Z,83.23
2017-03-09T07:27:36.376Z,82.76
2017-03-09T07:28:36.753Z,82.57
2017-03-09T07:29:36.742Z,82.38
2017-03-09T07:30:36.748Z,82.48
2017-03-09T07:31:36.728Z,82.38
2017-03-09T07:32:36.715Z,81.9
2017-03-09T07:33:36.711Z,82
2017-03-09T07:34:36.707Z,82.28
2017-03-09T07:35:36.687Z,81.9
2017-03-09T07:36:36.683Z,82.14
2017-03-09T07:37:36.680Z,82.23
2017-03-09T07:38:36.660Z,81.56
2017-03-09T07:39:36.649Z,81.18
2017-03-09T07:40:36.649Z,81.37
2017-03-09T07:41:36.634Z,81.47
2017-03-09T07:42:36.629Z,81.09
2017-03-09T07:43:36.626Z,81.37
2017-03-09T07:44:36.219Z,81.09
2017-03-09T07:45:36.611Z,80.8
2017-03-09T07:46:36.587Z,80.61
2017-03-09T07:47:36.578Z,80.61
2017-03-09T07:48:36.582Z,80.52
2017-03-09T07:49:36.175Z,81.09
2017-03-09T07:50:36.551Z,80.99
2017-03-09T07:51:36.542Z,80.71
2017-03-09T07:52:36.148Z,81.18
2017-03-09T07:53:36.533Z,81.09
2017-03-09T07:54:36.528Z,79.85
2017-03-09T07:55:36.512Z,79.28
2017-03-09T07:56:36.132Z,79.57
2017-03-09T07:57:36.487Z,79.57
2017-03-09T07:58:36.486Z,79.47
2017-03-09T07:59:36.083Z,79.38
2017-03-09T08:00:36.075Z,79.85
2017-03-09T08:01:36.067Z,78.99
2017-03-09T08:02:36.457Z,78.8
2017-03-09T08:03:36.436Z,78.52
2017-03-09T08:04:36.430Z,78.42
2017-03-09T08:05:36.418Z,78.99
2017-03-09T08:06:36.409Z,78.23
2017-03-09T08:07:36.401Z,78.14
2017-03-09T08:08:36.403Z,77.95
2017-03-09T08:09:36.392Z,78.23
2017-03-09T08:10:36.005Z,78.14
2017-03-09T08:11:36.368Z,78.46
2017-03-09T08:12:35.982Z,78.56
2017-03-09T08:13:36.362Z,78.17
2017-03-09T08:14:35.951Z,78.46
2017-03-09T08:15:36.331Z,77.7
2017-03-09T08:16:36.333Z,77.61
2017-03-09T08:17:36.315Z,78.17
2017-03-09T08:18:36.305Z,77.7
2017-03-09T08:19:36.296Z,77.7
2017-03-09T08:20:35.901Z,77.03
2017-03-09T08:21:36.283Z,77.51
2017-03-09T08:22:36.273Z,76.84
2017-03-09T08:23:36.263Z,76.94
2017-03-09T08:24:36.265Z,76.79
2017-03-09T08:25:36.263Z,77.13
2017-03-09T08:26:36.451Z,76.98
2017-03-09T08:27:36.247Z,76.79
2017-03-09T08:28:36.222Z,77.36
2017-03-09T08:29:36.226Z,76.5
2017-03-09T08:30:36.205Z,76.88
2017-03-09T08:31:36.198Z,76.5
2017-03-09T08:32:35.804Z,75.45
2017-03-09T08:33:36.195Z,74.98
2017-03-09T08:34:36.176Z,75.07
2017-03-09T08:35:36.179Z,75.2
2017-03-09T08:36:35.777Z,74.54
2017-03-09T08:39:35.757Z,73.01
2017-03-09T08:40:36.128Z,72.25
2017-03-09T08:41:36.124Z,72.16
2017-03-09T08:42:35.730Z,72.82
2017-03-09T08:43:36.107Z,72.63
2017-03-09T08:44:36.099Z,72.53
2017-03-09T08:45:36.100Z,72.57
2017-03-09T08:46:36.086Z,72
2017-03-09T08:47:36.078Z,71.33
2017-03-09T08:48:36.072Z,71.62
2017-03-09T08:49:36.092Z,71.52
2017-03-09T08:50:36.064Z,71.14
2017-03-09T08:51:36.051Z,70.61
2017-03-09T08:52:36.063Z,70.51
2017-03-09T08:53:36.037Z,70.61
2017-03-09T08:54:36.045Z,70.42
2017-03-09T08:55:36.023Z,69.84
2017-03-09T08:56:36.016Z,69.27
2017-03-09T08:57:36.016Z,69.56
2017-03-09T08:58:36.005Z,68.54
2017-03-09T08:59:35.997Z,68.26
2017-03-09T09:00:35.995Z,68.06
2017-03-09T09:01:35.986Z,66.92
2017-03-09T09:02:35.988Z,65.01
2017-03-09T09:03:35.973Z,64.91
2017-03-09T09:04:35.965Z,65.61
2017-03-09T09:05:35.962Z,64.85
2017-03-09T09:06:35.954Z,64.65
2017-03-09T09:07:35.950Z,63.8
2017-03-09T09:08:35.947Z,63.13
2017-03-09T09:09:35.956Z,61.03
2017-03-09T09:10:35.936Z,61.69
2017-03-09T09:11:35.926Z,62.27
2017-03-09T09:12:35.922Z,61.79
2017-03-09T09:13:35.920Z,60.84
2017-03-09T09:14:35.915Z,61.13
2017-03-09T09:15:35.907Z,61.03
2017-03-09T09:16:35.910Z,60.84
2017-03-09T09:17:35.903Z,60.74
2017-03-09T09:18:35.887Z,60.01
2017-03-09T09:19:35.887Z,59.72
2017-03-09T09:20:35.877Z,59.63
2017-03-09T09:21:35.873Z,58.95
2017-03-09T09:22:35.871Z,58.76
2017-03-09T09:23:35.873Z,57.53
2017-03-09T09:24:35.863Z,56.76
2017-03-09T09:25:35.853Z,57.14
2017-03-09T09:26:35.866Z,56.95
2017-03-09T09:27:35.850Z,57.33
2017-03-09T09:28:35.853Z,58
2017-03-09T09:29:35.838Z,58.38
2017-03-09T09:30:35.834Z,57.71
2017-03-09T09:31:35.836Z,57.71
2017-03-09T09:32:35.822Z,58.1
2017-03-09T09:33:35.816Z,58
2017-03-09T09:34:35.809Z,57.9
2017-03-09T09:35:35.805Z,57.55
2017-03-09T09:36:35.799Z,56.21
2017-03-09T09:37:35.795Z,55.26
2017-03-09T09:38:35.792Z,54.88
2017-03-09T09:39:35.785Z,55.26
2017-03-09T09:40:35.782Z,55.45
2017-03-09T09:41:35.793Z,55.26
2017-03-09T09:42:35.785Z,55.45
2017-03-09T09:43:35.785Z,55.35
2017-03-09T09:44:35.769Z,55.45
2017-03-09T09:45:35.760Z,55.35
2017-03-09T09:46:35.755Z,55.35
2017-03-09T09:47:35.749Z,55.26
2017-03-09T09:48:35.745Z,55.64
2017-03-09T09:49:35.750Z,56.12
2017-03-09T09:50:35.736Z,56.02
2017-03-09T09:51:35.735Z,56.02
2017-03-09T09:52:35.742Z,56.12
2017-03-09T09:53:35.738Z,56.21
2017-03-09T09:54:35.717Z,56.5
2017-03-09T09:55:35.725Z,56.31
2017-03-09T09:56:35.727Z,56.12
2017-03-09T09:57:35.704Z,56.62
2017-03-09T09:58:35.701Z,55.47
2017-03-09T09:59:35.701Z,55.76
2017-03-09T10:00:35.693Z,55.47
2017-03-09T10:01:35.699Z,55.29
2017-03-09T10:02:35.683Z,54.8
2017-03-09T10:03:35.679Z,52.73
2017-03-09T10:04:35.675Z,53.47
2017-03-09T10:05:35.283Z,54.52
2017-03-09T10:06:35.668Z,54.61
2017-03-09T10:07:35.276Z,54.71
2017-03-09T10:08:35.672Z,54.52
2017-03-09T10:09:35.660Z,54.16
2017-03-09T10:10:35.651Z,53.88
2017-03-09T10:11:35.262Z,53.88
2017-03-09T10:12:35.644Z,53.49
2017-03-09T10:13:35.642Z,52.73
2017-03-09T10:14:35.250Z,52.83
2017-03-09T10:15:35.636Z,52.85
2017-03-09T10:16:35.242Z,53.3
2017-03-09T10:17:35.251Z,53.14
2017-03-09T10:18:35.239Z,53.4
2017-03-09T10:19:35.232Z,52.75
2017-03-09T10:20:35.229Z,52.95
2017-03-09T10:21:35.610Z,52.63
2017-03-09T10:22:35.610Z,52.83
2017-03-09T10:23:35.601Z,52.83
2017-03-09T10:24:35.224Z,53.59
2017-03-09T10:25:35.219Z,53.97
2017-03-09T10:26:35.216Z,53.49
2017-03-09T10:27:35.207Z,53.3
2017-03-09T10:28:35.203Z,53.88
2017-03-09T10:29:35.198Z,53.97
2017-03-09T10:30:35.199Z,52.63
2017-03-09T10:31:35.195Z,52.83
2017-03-09T10:32:35.571Z,52.73
2017-03-09T10:33:35.570Z,53.02
2017-03-09T10:34:35.585Z,52.63
2017-03-09T10:35:35.561Z,53.2
2017-03-09T10:36:35.556Z,53.2
2017-03-09T10:37:35.580Z,53.3
2017-03-09T10:38:35.565Z,53.3
2017-03-09T10:39:35.158Z,53.11
2017-03-09T10:40:35.545Z,52.92
2017-03-09T10:41:35.537Z,53.69
2017-03-09T10:42:35.535Z,53.75
2017-03-09T10:43:35.529Z,53.66
2017-03-09T10:44:35.537Z,54.04
2017-03-09T10:45:35.526Z,54.33
2017-03-09T10:46:35.520Z,54.9
2017-03-09T10:47:35.531Z,54.97
2017-03-09T10:48:35.523Z,55.07
2017-03-09T10:49:35.505Z,55.45
2017-03-09T10:50:35.115Z,55.35
2017-03-09T10:51:35.114Z,56.02
2017-03-09T10:52:35.498Z,56.38
2017-03-09T10:53:35.488Z,56.67
2017-03-09T10:54:35.109Z,56.67
2017-03-09T10:55:35.481Z,57.04
2017-03-09T10:56:35.482Z,57.62
2017-03-09T10:57:35.770Z,57.9
2017-03-09T10:58:35.465Z,58.1
2017-03-09T10:59:35.079Z,57.9
2017-03-09T11:00:35.454Z,57.53
2017-03-09T11:01:35.452Z,57.93
2017-03-09T11:02:35.449Z,58.32
2017-03-09T11:03:35.442Z,58.89
2017-03-09T11:04:35.439Z,58.41
2017-03-09T11:05:35.432Z,57.65
2017-03-09T11:06:35.436Z,57.46
2017-03-09T11:07:35.036Z,56.69
2017-03-09T11:08:35.039Z,56.31
2017-03-09T11:09:35.415Z,56.69
2017-03-09T11:10:35.023Z,56.6
2017-03-09T11:11:35.403Z,56.6
2017-03-09T11:12:35.015Z,55.74
2017-03-09T11:13:35.405Z,55.54
2017-03-09T11:14:35.004Z,55.38
2017-03-09T11:15:34.996Z,55.47
2017-03-09T11:16:35.384Z,55.1
2017-03-09T11:17:35.400Z,55.29
2017-03-09T11:18:34.985Z,55.19
2017-03-09T11:19:35.370Z,55.19
2017-03-09T11:20:35.367Z,55.19
2017-03-09T11:21:35.364Z,55.41
2017-03-09T11:22:35.356Z,54.83
2017-03-09T11:23:35.355Z,55.22
2017-03-09T11:24:35.348Z,54.74
2017-03-09T11:25:34.961Z,54.45
2017-03-09T11:26:35.342Z,53.97
2017-03-09T11:27:35.341Z,53.88
2017-03-09T11:28:34.945Z,54.26
2017-03-09T11:29:35.327Z,54.26
2017-03-09T11:30:35.326Z,53.91
2017-03-09T11:31:35.319Z,52.85
2017-03-09T11:32:35.327Z,52.75
2017-03-09T11:33:35.314Z,52.66
2017-03-09T11:34:34.929Z,51.99
2017-03-09T11:35:35.309Z,52.28
2017-03-09T11:36:35.305Z,52.28
2017-03-09T11:37:35.297Z,52.28
2017-03-09T11:38:35.299Z,52.09
2017-03-09T11:39:35.290Z,52.09
2017-03-09T11:40:35.299Z,51.89
2017-03-09T11:41:35.283Z,52.18
2017-03-09T11:42:35.284Z,51.89
2017-03-09T11:43:35.282Z,51.79
2017-03-09T11:44:35.277Z,51.79
2017-03-09T11:45:35.278Z,51.32
2017-03-09T11:46:35.289Z,51.79
2017-03-09T11:47:35.266Z,51.89
2017-03-09T11:48:35.274Z,51.99
2017-03-09T11:49:35.269Z,51.61
2017-03-09T11:50:35.257Z,51.61
2017-03-09T11:51:34.865Z,51.42
2017-03-09T11:52:34.860Z,51.51
2017-03-09T11:53:35.246Z,51.99
2017-03-09T11:54:34.855Z,51.99
2017-03-09T11:55:34.849Z,52.09
2017-03-09T11:56:35.234Z,52.09
2017-03-09T11:57:35.229Z,52.09
2017-03-09T11:58:35.227Z,52.18
2017-03-09T11:59:35.224Z,52.18
2017-03-09T12:00:35.222Z,52.47
2017-03-09T12:01:35.221Z,51.79
2017-03-09T12:02:34.834Z,51.79
2017-03-09T12:03:34.825Z,52.15
2017-03-09T12:04:34.821Z,52.25
2017-03-09T12:05:35.205Z,51.97
2017-03-09T12:06:35.201Z,51.97
2017-03-09T12:07:35.196Z,51.87
2017-03-09T12:08:35.194Z,51.87
2017-03-09T12:09:35.195Z,52.06
2017-03-09T12:10:35.187Z,52.15
2017-03-09T12:11:35.182Z,51.97
2017-03-09T12:12:35.188Z,51.87
2017-03-09T12:13:35.176Z,52.15
2017-03-09T12:14:35.175Z,52.15
2017-03-09T12:15:35.170Z,52.15
2017-03-09T12:16:35.168Z,51.87
2017-03-09T12:17:34.772Z,51.97
2017-03-09T12:18:35.155Z,51.97
2017-03-09T12:19:35.153Z,52.15
2017-03-09T12:20:35.147Z,52.34
2017-03-09T12:21:35.144Z,52.25
2017-03-09T12:22:35.141Z,53.02
2017-03-09T12:23:35.135Z,52.42
2017-03-09T12:24:35.133Z,52.83
2017-03-09T12:25:35.140Z,52.63
2017-03-09T12:26:34.739Z,53.02
2017-03-09T12:27:35.154Z,51.97
2017-03-09T12:28:35.131Z,51.97
2017-03-09T12:29:35.114Z,52.15
2017-03-09T12:30:35.110Z,51.97
2017-03-09T12:31:35.118Z,51.97
2017-03-09T12:32:35.103Z,51.87
2017-03-09T12:33:35.101Z,52.06
2017-03-09T12:34:35.096Z,51.87
2017-03-09T12:35:35.093Z,52.06
2017-03-09T12:36:35.094Z,52.28
2017-03-09T12:37:35.085Z,52.18
2017-03-09T12:38:35.082Z,51.89
2017-03-09T12:39:35.078Z,51.79
2017-03-09T12:40:35.073Z,51.61
2017-03-09T12:41:35.071Z,51.51
2017-03-09T12:42:35.076Z,51.51
2017-03-09T12:43:35.072Z,51.61
2017-03-09T12:44:35.059Z,51.13
2017-03-09T12:45:35.067Z,51.13
2017-03-09T12:46:35.053Z,50.84
2017-03-09T12:47:35.054Z,51.32
2017-03-09T12:48:35.049Z,51.51
2017-03-09T12:49:35.050Z,51.7
2017-03-09T12:50:35.040Z,51.51
2017-03-09T12:51:35.041Z,50.84
2017-03-09T12:52:35.039Z,50.65
2017-03-09T12:53:35.030Z,51.51
2017-03-09T12:54:35.028Z,51.32
2017-03-09T12:55:35.021Z,51.68
2017-03-09T12:56:35.019Z,51.87
2017-03-09T12:57:35.018Z,52.54